Amanda, OH (43102)

11:19 AM EST on December 10, 2016 (GMT -0500)
| | Change Station

Elev -9999 ft 0.00 °N, 0.00 °E | Updated 5 minutes ago

Overcast
Overcast
69 °F
Feels Like 69 °F
N
4
Wind Variable Wind from SSW
Gusts mph

Today
High -- | Low -- °F
--% Chance of Precip.
Yesterday
High -- | Low -- °F
Precip. -- in
Pressure 30.58 in
Visibility 10.0 miles
Clouds Scattered Clouds 2000 ft
Overcast 11000 ft
Dew Point 65 °F
Humidity 88%
Rainfall --
Snow Depth Not available.
7:41 AM 5:06 PM
Waxing Gibbous, 84% visible
METAR KLHQ 101553Z AUTO 25009KT 10SM SCT020 OVC110 M03/M08 A3055 RMK AO2 SLP356 T10331078
Pressure 30.58 in
Visibility 10.0 miles
Clouds Scattered Clouds 2000 ft
Overcast 11000 ft
Dew Point 65 °F
Humidity 88%
Rainfall --
Snow Depth Not available.
7:41 AM 5:06 PM
Waxing Gibbous, 84% visible
METAR KLHQ 101553Z AUTO 25009KT 10SM SCT020 OVC110 M03/M08 A3055 RMK AO2 SLP356 T10331078

10-Day Weather Forecast

Almanac

Astronomy

Dec. 10, 2016 Rise Set
Actual Time
Civil Twilight
Nautical Twilight
Astronomical Twilight
Moon
Length of Visible Light
Length of Day
Tomorrow will be .
, % of the Moon is Illuminated

Today's Extremes

State Highs State Lows

Community

WunderPhotos

Upload Photos

1,956,569 photos uploaded!

WunderBlog® & News

Nearby

Air Quality

  Air Quality AQ Index Pollutant
Not available.

Snow Depth

Station Depth Elevation

Earthquake Activity

City Distance Mag. Time & Date
Minimum magnitude displayed is 2.5.

Coastal Water Temperatures

Place Temperature

Stations

Nearby Weather Stations

Station Location Temp. Windchill Dew Point Humidity Wind Precip. Elev Updated Type
                   

Watches & Warnings

There are currently no watches in effect.